Time;durP1;ratioP1;P1;durP2;ratioP2;P2;SDS_P1;SDS_P2;PMS_P1;PMS_P2;Temp;Humidity;BMP_temperature;BMP_pressure;BME280_temperature;BME280_humidity;BME280_pressure;Samples;Min_cycle;Max_cycle;Signal;HPM_P1;HPM_P2
2023/10/31 00:01:05;;;;;;;0.30;0.30;;;;;;;17.20;60.13;98760.00;5307330;26;20073;-93
2023/10/31 00:03:31;;;;;;;0.15;0.15;;;;;;;17.26;60.13;98764.78;5310196;26;20052;-92
2023/10/31 00:05:56;;;;;;;0.35;0.35;;;;;;;17.37;60.13;98769.25;5318210;26;20341;-92
2023/10/31 00:08:24;;;;;;;0.13;0.13;;;;;;;17.37;60.13;98764.84;5307676;26;20101;-91
2023/10/31 00:10:49;;;;;;;1.00;0.80;;;;;;;17.36;60.13;98764.94;5307590;26;20438;-93
2023/10/31 00:13:14;;;;;;;0.47;0.47;;;;;;;17.43;60.13;98761.72;5307502;26;20063;-93
2023/10/31 00:15:40;;;;;;;1.55;1.45;;;;;;;17.55;60.15;98764.41;5307229;26;20368;-92
2023/10/31 00:18:05;;;;;;;0.80;0.80;;;;;;;17.37;60.12;98764.84;5307682;26;20056;-91
2023/10/31 00:20:31;;;;;;;0.30;0.30;;;;;;;17.30;60.13;98757.53;5307206;26;20086;-93
2023/10/31 00:22:56;;;;;;;0.20;0.20;;;;;;;17.20;60.12;98752.09;5307922;26;20106;-95
2023/10/31 00:25:21;;;;;;;0.25;0.25;;;;;;;17.12;60.11;98757.09;5308134;26;20370;-94
2023/10/31 00:27:47;;;;;;;0.90;0.90;;;;;;;17.14;60.11;98748.16;5307995;26;20082;-95
2023/10/31 00:30:12;;;;;;;0.88;0.85;;;;;;;17.13;60.11;98748.25;5309081;26;20057;-95
2023/10/31 00:32:38;;;;;;;1.42;0.65;;;;;;;17.12;60.12;98736.06;5312909;26;20065;-96
2023/10/31 00:35:04;;;;;;;0.30;0.30;;;;;;;17.10;60.12;98740.62;5317624;26;20098;-95
2023/10/31 00:37:33;;;;;;;1.60;1.00;;;;;;;17.18;60.12;98728.56;5297619;26;20070;-95
2023/10/31 00:39:58;;;;;;;0.10;0.10;;;;;;;17.19;60.12;98724.97;5328688;26;20084;-96
2023/10/31 00:42:23;;;;;;;0.90;0.88;;;;;;;17.10;60.12;98730.09;5308423;26;20137;-94
2023/10/31 00:44:49;;;;;;;2.35;1.73;;;;;;;17.21;60.12;98724.84;5307926;26;20076;-95
2023/10/31 00:47:15;;;;;;;4.93;1.30;;;;;;;17.04;60.12;98720.03;5326146;26;20074;-94
2023/10/31 00:49:40;;;;;;;0.13;0.08;;;;;;;16.99;60.11;98712.47;5307685;26;20068;-94
2023/10/31 00:52:06;;;;;;;0.52;0.52;;;;;;;17.03;60.11;98705.19;5308006;26;20398;-93
2023/10/31 00:54:31;;;;;;;0.88;0.85;;;;;;;16.97;60.11;98708.28;5307581;26;20072;-94
2023/10/31 00:56:56;;;;;;;0.77;0.73;;;;;;;16.96;60.11;98696.09;5327150;26;20448;-94
2023/10/31 00:59:22;;;;;;;0.75;0.75;;;;;;;16.92;60.11;98700.75;5307425;26;20151;-93
2023/10/31 01:01:47;;;;;;;0.85;0.85;;;;;;;16.96;60.11;98698.72;5307936;26;20066;-91
2023/10/31 01:04:13;;;;;;;0.80;0.52;;;;;;;16.94;60.11;98684.88;5307696;26;20350;-93
2023/10/31 01:06:42;;;;;;;1.65;1.17;;;;;;;16.93;60.11;98691.91;5306163;26;20487;-94
2023/10/31 01:09:07;;;;;;;0.95;0.60;;;;;;;16.85;60.11;98692.50;5288159;26;20124;-92
2023/10/31 01:11:32;;;;;;;1.70;1.60;;;;;;;16.92;60.11;98684.97;5325799;26;20378;-93
2023/10/31 01:13:58;;;;;;;0.22;0.15;;;;;;;16.89;60.11;98687.84;5306870;26;20226;-93
2023/10/31 01:16:23;;;;;;;0.52;0.47;;;;;;;16.89;60.11;98685.22;5307326;26;20065;-93
2023/10/31 01:18:49;;;;;;;1.48;1.30;;;;;;;17.02;60.12;98666.72;5307088;26;20057;-93
2023/10/31 01:21:14;;;;;;;0.75;0.50;;;;;;;17.09;60.12;98667.94;5307330;26;20041;-92
2023/10/31 01:23:39;;;;;;;1.65;0.75;;;;;;;17.17;60.13;98660.31;5306706;26;20118;-93
2023/10/31 01:26:05;;;;;;;0.62;0.60;;;;;;;17.12;60.12;98671.16;5306812;26;27789;-92
2023/10/31 01:28:30;;;;;;;1.02;0.40;;;;;;;17.00;60.12;98658.94;5307637;26;20389;-94
2023/10/31 01:30:56;;;;;;;6.40;2.17;;;;;;;17.12;60.12;98657.19;5307112;26;20064;-94
2023/10/31 01:33:21;;;;;;;0.47;0.47;;;;;;;17.12;60.12;98655.41;5307796;26;31925;-93
2023/10/31 01:35:46;;;;;;;0.43;0.43;;;;;;;17.04;60.12;98649.06;5308178;26;21480;-91
2023/10/31 01:38:12;;;;;;;0.90;0.70;;;;;;;16.95;60.11;98652.37;5317284;26;23258;-92
2023/10/31 01:40:37;;;;;;;0.50;0.50;;;;;;;16.99;60.11;98646.75;5311800;26;33810;-93
2023/10/31 01:43:03;;;;;;;0.15;0.15;;;;;;;16.98;60.11;98647.72;5309209;26;20072;-91
2023/10/31 01:45:28;;;;;;;0.43;0.43;;;;;;;16.98;60.11;98628.47;5327418;26;20147;-93
2023/10/31 01:47:53;;;;;;;0.80;0.60;;;;;;;17.00;60.10;98635.28;5308916;26;20075;-91
2023/10/31 01:50:19;;;;;;;1.50;0.80;;;;;;;16.99;60.10;98640.66;5327459;26;20287;-91
2023/10/31 01:52:45;;;;;;;1.12;1.12;;;;;;;16.83;60.10;98633.94;5309071;26;20060;-91
2023/10/31 01:55:10;;;;;;;3.10;0.88;;;;;;;16.98;60.11;98624.03;5308912;26;20074;-91
2023/10/31 01:57:36;;;;;;;2.10;0.93;;;;;;;16.94;60.11;98632.28;5308316;26;22272;-91
2023/10/31 02:00:01;;;;;;;1.00;0.55;;;;;;;17.00;60.12;98624.75;5308829;26;20117;-91
2023/10/31 02:02:27;;;;;;;1.25;1.20;;;;;;;16.81;60.10;98622.72;5308367;26;31227;-92
2023/10/31 02:04:52;;;;;;;1.00;0.88;;;;;;;16.97;60.11;98630.25;5308805;26;20150;-92
2023/10/31 02:07:17;;;;;;;0.20;0.20;;;;;;;16.98;60.11;98615.31;5309074;26;20081;-91
2023/10/31 02:09:43;;;;;;;0.10;0.10;;;;;;;16.89;60.11;98619.50;5308117;26;20672;-92
2023/10/31 02:12:08;;;;;;;0.50;0.50;;;;;;;16.96;60.11;98614.59;5308974;26;20445;-91
2023/10/31 02:14:34;;;;;;;0.50;0.50;;;;;;;16.97;60.11;98606.59;5308343;26;21749;-92
2023/10/31 02:16:59;;;;;;;0.73;0.73;;;;;;;16.93;60.11;98597.28;5307972;26;28899;-92
2023/10/31 02:19:24;;;;;;;0.37;0.32;;;;;;;16.91;60.11;98603.59;5308957;26;20110;-90
2023/10/31 02:21:50;;;;;;;2.25;1.67;;;;;;;16.86;60.11;98607.44;5308097;26;32289;-91
2023/10/31 02:24:15;;;;;;;0.75;0.70;;;;;;;16.97;60.11;98576.84;5308894;26;20072;-93
2023/10/31 02:26:41;;;;;;;0.73;0.73;;;;;;;16.72;60.10;98601.53;5308726;26;20056;-94
2023/10/31 02:29:06;;;;;;;1.02;0.68;;;;;;;16.77;60.11;98594.12;5308327;26;23283;-93
2023/10/31 02:31:32;;;;;;;2.22;1.98;;;;;;;16.83;60.10;98598.94;5308890;26;20090;-94
2023/10/31 02:33:57;;;;;;;0.45;0.45;;;;;;;16.62;60.10;98590.03;5309081;26;20053;-93
2023/10/31 02:36:23;;;;;;;0.65;0.65;;;;;;;16.75;60.10;98590.78;5309233;26;20066;-94
2023/10/31 02:38:48;;;;;;;0.45;0.43;;;;;;;16.84;60.10;98588.31;5309098;26;20084;-93
2023/10/31 02:41:14;;;;;;;0.98;0.98;;;;;;;16.79;60.11;98597.47;5307460;26;27560;-94
2023/10/31 02:43:41;;;;;;;0.47;0.47;;;;;;;16.81;60.11;98583.28;5326818;26;20107;-94
2023/10/31 02:46:06;;;;;;;1.25;0.98;;;;;;;16.73;60.10;98593.53;5308816;26;20053;-94
2023/10/31 02:48:37;;;;;;;2.75;1.45;;;;;;;16.74;60.10;98610.12;5308721;26;20091;-93
2023/10/31 02:51:04;;;;;;;0.57;0.40;;;;;;;16.65;60.10;98595.88;5309683;26;20704;-93
2023/10/31 02:53:29;;;;;;;1.62;0.50;;;;;;;16.63;60.10;98587.28;5290442;26;20682;-94
2023/10/31 02:55:55;;;;;;;0.75;0.75;;;;;;;16.55;60.09;98600.97;5308573;26;20101;-94
2023/10/31 02:58:20;;;;;;;0.45;0.45;;;;;;;16.53;60.08;98604.66;5308863;26;20109;-93
2023/10/31 03:00:46;;;;;;;2.22;1.65;;;;;;;16.59;60.09;98601.59;5308176;26;25253;-94
2023/10/31 03:03:11;;;;;;;2.78;1.25;;;;;;;16.75;60.10;98596.88;5308491;26;20080;-93
2023/10/31 03:05:36;;;;;;;0.98;0.90;;;;;;;16.74;60.09;98586.47;5308751;26;20040;-92
2023/10/31 03:08:02;;;;;;;0.80;0.80;;;;;;;16.72;60.10;98585.75;5308910;26;20072;-92
2023/10/31 03:10:27;;;;;;;0.45;0.40;;;;;;;16.80;60.10;98588.66;5317032;26;20064;-94
2023/10/31 03:12:53;;;;;;;1.48;0.47;;;;;;;16.81;60.10;98596.44;5324196;26;20041;-93
2023/10/31 03:15:18;;;;;;;0.98;0.82;;;;;;;16.75;60.10;98596.03;5311537;26;31058;-93
2023/10/31 03:17:43;;;;;;;2.20;1.23;;;;;;;16.65;60.09;98595.88;5309022;26;20101;-94
2023/10/31 03:20:10;;;;;;;1.23;0.68;;;;;;;16.71;60.10;98595.44;5308524;26;20373;-93
2023/10/31 03:22:35;;;;;;;0.95;0.93;;;;;;;16.87;60.11;98589.88;5290573;26;20668;-94
2023/10/31 03:25:01;;;;;;;0.65;0.65;;;;;;;16.76;60.10;98597.72;5308050;26;20107;-93
2023/10/31 03:27:26;;;;;;;0.68;0.68;;;;;;;16.85;60.11;98592.63;5327026;26;20068;-94
2023/10/31 03:29:52;;;;;;;0.35;0.35;;;;;;;16.74;60.10;98621.47;5308956;26;20086;-94
2023/10/31 03:32:17;;;;;;;1.65;1.52;;;;;;;16.81;60.10;98627.97;5308813;26;20064;-93
2023/10/31 03:34:42;;;;;;;2.15;1.20;;;;;;;16.66;60.09;98623.00;5308471;26;20112;-92
2023/10/31 03:37:08;;;;;;;0.98;0.82;;;;;;;16.74;60.09;98623.28;5308595;26;20449;-93
2023/10/31 03:39:33;;;;;;;0.50;0.50;;;;;;;16.86;60.11;98623.19;5308318;26;20056;-93
2023/10/31 03:41:59;;;;;;;5.15;1.65;;;;;;;16.74;60.09;98620.66;5307597;26;30505;-95
2023/10/31 03:44:25;;;;;;;2.10;0.85;;;;;;;16.80;60.10;98630.72;5308791;26;20153;-93
2023/10/31 03:46:50;;;;;;;1.05;0.95;;;;;;;16.70;60.10;98643.69;5307653;26;32381;-93
2023/10/31 03:49:16;;;;;;;1.48;1.30;;;;;;;16.79;60.10;98629.84;5308442;26;20154;-93
2023/10/31 03:51:41;;;;;;;0.32;0.32;;;;;;;16.79;60.10;98614.09;5308181;26;20080;-94
2023/10/31 03:54:07;;;;;;;0.40;0.40;;;;;;;16.76;60.09;98622.19;5326861;26;20362;-95
2023/10/31 03:56:42;;;;;;;0.32;0.32;;;;;;;16.84;60.10;98627.75;5308716;26;20106;-93
2023/10/31 03:59:08;;;;;;;0.43;0.43;;;;;;;16.76;60.10;98630.09;5290712;26;20127;-95
2023/10/31 04:01:34;;;;;;;0.80;0.73;;;;;;;16.72;60.10;98633.06;5308305;26;20061;-93
2023/10/31 04:03:59;;;;;;;1.23;0.80;;;;;;;16.64;60.10;98631.00;5308495;26;20101;-94
2023/10/31 04:06:24;;;;;;;0.90;0.90;;;;;;;16.72;60.10;98631.28;5307754;26;26477;-92
2023/10/31 04:08:50;;;;;;;1.77;1.20;;;;;;;16.62;60.10;98638.16;5308632;26;20103;-94
2023/10/31 04:11:15;;;;;;;0.77;0.35;;;;;;;16.62;60.10;98622.37;5308497;26;20069;-94
2023/10/31 04:13:40;;;;;;;0.80;0.80;;;;;;;16.46;60.08;98616.59;5307326;26;32572;-92
2023/10/31 04:16:06;;;;;;;0.77;0.77;;;;;;;16.24;60.08;98623.41;5307740;26;20067;-93
2023/10/31 04:18:32;;;;;;;0.13;0.13;;;;;;;16.49;60.09;98621.59;5290289;26;20052;-93
2023/10/31 04:20:57;;;;;;;1.27;0.95;;;;;;;16.41;60.08;98616.94;5326626;26;20097;-93
2023/10/31 04:23:23;;;;;;;1.52;1.37;;;;;;;16.43;60.08;98604.53;5308564;26;20095;-93
2023/10/31 04:25:49;;;;;;;1.02;0.93;;;;;;;16.34;60.08;98607.84;5308494;26;20097;-92
2023/10/31 04:28:15;;;;;;;0.52;0.52;;;;;;;16.25;60.08;98598.00;5307579;26;20421;-93
2023/10/31 04:30:40;;;;;;;0.93;0.85;;;;;;;16.40;60.09;98590.78;5308105;26;20104;-93
2023/10/31 04:33:05;;;;;;;2.75;1.33;;;;;;;16.31;60.07;98586.19;5308060;26;20362;-93
2023/10/31 04:35:31;;;;;;;0.05;0.05;;;;;;;16.31;60.07;98586.19;5307861;26;20082;-93
2023/10/31 04:37:56;;;;;;;1.10;0.60;;;;;;;16.25;60.08;98583.06;5308233;26;20120;-91
2023/10/31 04:40:22;;;;;;;1.67;1.23;;;;;;;16.37;60.08;98575.25;5307885;26;20080;-90
2023/10/31 04:42:47;;;;;;;0.62;0.62;;;;;;;16.26;60.08;98578.66;5312693;26;20069;-92
2023/10/31 04:45:13;;;;;;;1.55;1.45;;;;;;;16.26;60.07;98576.03;5318396;26;20100;-91
2023/10/31 04:47:38;;;;;;;0.25;0.25;;;;;;;16.26;60.08;98586.53;5312614;26;20382;-92
2023/10/31 04:50:04;;;;;;;1.10;1.00;;;;;;;16.24;60.08;98583.19;5308164;26;20072;-92
2023/10/31 04:52:29;;;;;;;0.80;0.73;;;;;;;16.16;60.06;98577.69;5308119;26;20062;-93
2023/10/31 04:54:55;;;;;;;0.93;0.80;;;;;;;16.14;60.07;98583.03;5307942;26;20103;-93
2023/10/31 04:57:20;;;;;;;0.55;0.50;;;;;;;16.23;60.06;98568.37;5308174;26;20111;-92
2023/10/31 04:59:45;;;;;;;0.20;0.20;;;;;;;16.36;60.08;98561.28;5307612;26;20073;-92
2023/10/31 05:02:11;;;;;;;1.40;0.17;;;;;;;16.35;60.07;98554.34;5308070;26;20072;-92
2023/10/31 05:04:40;;;;;;;0.20;0.20;;;;;;;16.32;60.08;98545.84;5308593;26;20048;-93
2023/10/31 05:07:05;;;;;;;0.20;0.20;;;;;;;16.19;60.07;98546.78;5311764;26;20401;-92
2023/10/31 05:09:31;;;;;;;0.25;0.25;;;;;;;16.20;60.07;98534.47;5309111;26;20057;-93
2023/10/31 05:11:56;;;;;;;0.52;0.52;;;;;;;16.34;60.08;98522.97;5308897;26;20070;-93
2023/10/31 05:14:22;;;;;;;0.70;0.70;;;;;;;16.29;60.07;98518.03;5309017;26;20096;-93
2023/10/31 05:16:47;;;;;;;1.00;0.90;;;;;;;16.33;60.08;98508.16;5308796;26;20077;-94
2023/10/31 05:19:13;;;;;;;0.30;0.30;;;;;;;16.28;60.07;98519.81;5309314;26;20074;-93
2023/10/31 05:21:38;;;;;;;0.98;0.45;;;;;;;16.23;60.08;98529.00;5309561;26;20494;-93
2023/10/31 05:24:04;;;;;;;0.37;0.37;;;;;;;16.29;60.07;98549.53;5329435;26;20063;-93
2023/10/31 05:26:30;;;;;;;0.35;0.28;;;;;;;16.31;60.07;98554.69;5294654;26;20066;-94
2023/10/31 05:28:57;;;;;;;2.08;1.27;;;;;;;16.35;60.07;98562.25;5313931;26;20031;-92
2023/10/31 05:31:23;;;;;;;0.10;0.10;;;;;;;16.29;60.07;98586.31;5306742;26;20020;-92
2023/10/31 05:33:48;;;;;;;1.42;1.33;;;;;;;16.48;60.09;98575.28;5321119;26;20036;-92
2023/10/31 05:36:18;;;;;;;4.35;1.90;;;;;;;16.53;60.09;98565.25;5323234;26;20106;-92
2023/10/31 05:38:44;;;;;;;1.27;1.15;;;;;;;16.47;60.08;98577.06;5291584;26;20036;-94
2023/10/31 05:41:09;;;;;;;0.40;0.37;;;;;;;16.39;60.07;98571.56;5309560;26;20092;-94
2023/10/31 05:43:35;;;;;;;0.60;0.60;;;;;;;16.40;60.08;98565.34;5310044;26;20091;-92
2023/10/31 05:46:00;;;;;;;1.95;1.65;;;;;;;16.41;60.09;98560.94;5309233;26;20123;-91
2023/10/31 05:48:26;;;;;;;0.95;0.77;;;;;;;16.35;60.07;98561.41;5308125;26;20060;-93
2023/10/31 05:50:51;;;;;;;0.15;0.15;;;;;;;16.44;60.08;98551.03;5308589;26;20070;-93
2023/10/31 05:53:17;;;;;;;1.08;0.52;;;;;;;16.38;60.07;98548.88;5309238;26;20344;-94
2023/10/31 05:55:42;;;;;;;0.77;0.77;;;;;;;16.40;60.09;98554.84;5329288;26;20068;-94
2023/10/31 05:58:08;;;;;;;0.10;0.10;;;;;;;16.42;60.08;98555.56;5328249;26;20061;-94
2023/10/31 06:00:33;;;;;;;0.00;0.00;;;;;;;16.43;60.08;98557.25;5309150;26;20456;-93
2023/10/31 06:02:58;;;;;;;0.20;0.20;;;;;;;16.51;60.08;98548.78;5309236;26;20099;-93
2023/10/31 06:05:24;;;;;;;0.17;0.17;;;;;;;16.43;60.08;98535.41;5309026;26;20060;-94
2023/10/31 06:07:50;;;;;;;0.30;0.30;;;;;;;16.41;60.09;98529.41;5308950;26;20056;-92
2023/10/31 06:10:16;;;;;;;0.32;0.32;;;;;;;16.53;60.08;98537.19;5327589;26;20424;-92
2023/10/31 06:12:41;;;;;;;0.10;0.10;;;;;;;16.51;60.09;98549.62;5308940;26;20044;-94
2023/10/31 06:15:08;;;;;;;0.20;0.20;;;;;;;16.53;60.09;98549.50;5327077;26;20107;-93
2023/10/31 06:17:34;;;;;;;0.30;0.30;;;;;;;16.59;60.09;98554.31;5294543;26;20060;-93
2023/10/31 06:19:59;;;;;;;1.55;0.80;;;;;;;16.66;60.10;98558.16;5309124;26;20109;-94
2023/10/31 06:22:24;;;;;;;0.75;0.20;;;;;;;16.65;60.10;98563.50;5308471;26;20114;-94
2023/10/31 06:24:50;;;;;;;0.77;0.30;;;;;;;16.65;60.10;98561.72;5307204;26;26659;-94
2023/10/31 06:27:15;;;;;;;0.62;0.55;;;;;;;16.61;60.09;98559.44;5307632;26;20111;-94
2023/10/31 06:29:41;;;;;;;0.55;0.47;;;;;;;16.69;60.09;98565.81;5308200;26;20104;-94
2023/10/31 06:32:06;;;;;;;0.45;0.45;;;;;;;16.80;60.10;98567.66;5308295;26;20088;-95
2023/10/31 06:34:32;;;;;;;0.52;0.52;;;;;;;16.68;60.09;98560.69;5308231;26;20080;-93
2023/10/31 06:36:57;;;;;;;1.23;1.10;;;;;;;16.72;60.10;98552.44;5309414;26;20068;-94
2023/10/31 06:39:22;;;;;;;0.10;0.10;;;;;;;16.73;60.10;98542.75;5308918;26;20102;-93
2023/10/31 06:41:48;;;;;;;0.30;0.30;;;;;;;16.77;60.11;98537.16;5307893;26;20072;-93
2023/10/31 06:44:13;;;;;;;1.95;1.05;;;;;;;16.81;60.10;98537.78;5307997;26;20056;-94
2023/10/31 06:46:39;;;;;;;0.22;0.22;;;;;;;16.82;60.10;98560.47;5308422;26;20504;-95
2023/10/31 06:49:04;;;;;;;1.85;1.08;;;;;;;16.82;60.10;98571.00;5307892;26;20378;-93
2023/10/31 06:51:30;;;;;;;0.28;0.28;;;;;;;16.98;60.11;98576.72;5307937;26;20138;-93
2023/10/31 06:53:55;;;;;;;0.50;0.50;;;;;;;17.04;60.11;98583.34;5307824;26;20401;-93
2023/10/31 06:56:20;;;;;;;2.10;0.32;;;;;;;16.90;60.10;98573.88;5308164;26;20053;-93
2023/10/31 06:58:46;;;;;;;1.12;0.28;;;;;;;16.59;60.09;98593.72;5309345;26;20071;-93
2023/10/31 07:01:13;;;;;;;0.25;0.25;;;;;;;16.79;60.10;98590.44;5309979;26;20115;-94
2023/10/31 07:03:39;;;;;;;0.20;0.20;;;;;;;16.93;60.11;98578.03;5311450;26;20068;-95
2023/10/31 07:06:04;;;;;;;0.00;0.00;;;;;;;16.99;60.11;98577.56;5311971;26;20098;-93
2023/10/31 07:08:30;;;;;;;0.00;0.00;;;;;;;16.93;60.11;98572.78;5323573;26;20092;-95
2023/10/31 07:10:57;;;;;;;0.32;0.32;;;;;;;16.86;60.11;98570.63;5320318;26;20555;-92
2023/10/31 07:13:22;;;;;;;0.57;0.35;;;;;;;16.94;60.11;98571.81;5293284;26;20425;-95
2023/10/31 07:15:48;;;;;;;0.00;0.00;;;;;;;17.04;60.12;98578.91;5308082;26;20108;-93
2023/10/31 07:18:13;;;;;;;1.05;0.47;;;;;;;17.08;60.12;98579.50;5307772;26;20496;-94
2023/10/31 07:20:38;;;;;;;0.00;0.00;;;;;;;17.13;60.12;98570.28;5308410;26;20143;-93
2023/10/31 07:23:04;;;;;;;0.00;0.00;;;;;;;17.16;60.13;98580.56;5307952;26;20112;-93
2023/10/31 07:25:29;;;;;;;0.40;0.35;;;;;;;17.09;60.12;98582.00;5307633;26;20146;-93
2023/10/31 07:27:55;;;;;;;0.88;0.60;;;;;;;17.25;60.13;98579.00;5300538;27;20131;-94
2023/10/31 07:30:20;;;;;;;0.00;0.00;;;;;;;17.30;60.13;98571.62;5282113;27;20135;-94
2023/10/31 07:32:45;;;;;;;0.25;0.25;;;;;;;17.32;60.13;98560.97;5284144;27;20345;-93
2023/10/31 07:35:11;;;;;;;0.00;0.00;;;;;;;17.51;60.14;98558.59;5282180;27;20116;-94
2023/10/31 07:37:36;;;;;;;0.00;0.00;;;;;;;17.56;60.15;98560.84;5282341;27;20069;-94
2023/10/31 07:40:04;;;;;;;0.05;0.05;;;;;;;17.59;60.14;98566.69;5282429;27;20058;-94
2023/10/31 07:42:29;;;;;;;0.32;0.32;;;;;;;17.66;60.14;98559.97;5300872;27;20030;-94
2023/10/31 07:44:55;;;;;;;0.05;0.05;;;;;;;17.80;60.15;98564.19;5300790;27;20105;-94
2023/10/31 07:47:21;;;;;;;0.03;0.03;;;;;;;17.96;60.16;98564.59;5310220;27;20100;-94
2023/10/31 07:49:47;;;;;;;0.45;0.35;;;;;;;18.03;60.17;98544.72;5282537;27;20087;-93
2023/10/31 07:52:13;;;;;;;0.47;0.32;;;;;;;18.04;60.16;98543.75;5303935;27;20057;-94
2023/10/31 07:54:40;;;;;;;5.25;1.08;;;;;;;18.34;60.18;98547.47;5282134;27;20730;-93
2023/10/31 07:57:06;;;;;;;0.00;0.00;;;;;;;18.27;60.18;98538.41;5301057;27;20064;-94
2023/10/31 07:59:33;;;;;;;0.00;0.00;;;;;;;18.41;60.19;98544.19;5282453;27;20073;-94
2023/10/31 08:01:59;;;;;;;1.08;1.02;;;;;;;18.46;60.19;98535.06;5282427;27;20084;-93
2023/10/31 08:04:25;;;;;;;0.25;0.25;;;;;;;18.60;60.19;98530.31;5282303;27;20365;-94
2023/10/31 08:06:50;;;;;;;0.88;0.88;;;;;;;18.73;60.20;98524.03;5300428;27;20358;-93
2023/10/31 08:09:16;;;;;;;0.10;0.10;;;;;;;18.86;60.21;98524.66;5281720;27;20883;-94
2023/10/31 08:11:41;;;;;;;2.17;0.98;;;;;;;18.91;60.20;98531.19;5300393;27;20513;-94
2023/10/31 08:14:07;;;;;;;0.22;0.17;;;;;;;18.84;60.20;98535.31;5303132;27;20076;-93
2023/10/31 08:16:32;;;;;;;0.20;0.20;;;;;;;19.10;60.22;98522.53;5300479;27;20065;-94
2023/10/31 08:18:58;;;;;;;0.37;0.30;;;;;;;19.05;60.22;98532.66;5300312;27;20070;-94
2023/10/31 08:21:23;;;;;;;1.33;0.70;;;;;;;19.11;60.22;98528.66;5281632;27;23161;-94
2023/10/31 08:23:49;;;;;;;0.45;0.45;;;;;;;19.10;60.22;98541.00;5282189;27;20126;-94
2023/10/31 08:26:14;;;;;;;1.27;1.10;;;;;;;19.19;60.23;98519.12;5282515;26;20102;-93
2023/10/31 08:28:40;;;;;;;0.13;0.13;;;;;;;19.21;60.22;98521.63;5307760;26;20052;-93
2023/10/31 08:31:06;;;;;;;3.20;0.85;;;;;;;19.41;60.24;98525.16;5307937;26;20127;-94
2023/10/31 08:33:31;;;;;;;0.30;0.30;;;;;;;19.44;60.24;98517.81;5308503;26;20193;-94
2023/10/31 08:35:56;;;;;;;0.73;0.28;;;;;;;19.53;60.24;98514.37;5307405;26;20121;-94
2023/10/31 08:38:22;;;;;;;0.75;0.75;;;;;;;19.63;60.26;98502.03;5307575;26;20101;-94
2023/10/31 08:40:48;;;;;;;0.00;0.00;;;;;;;19.68;60.25;98506.09;5308020;26;20079;-94
2023/10/31 08:43:14;;;;;;;0.10;0.10;;;;;;;19.58;60.25;98511.34;5307125;26;20064;-93
2023/10/31 08:45:39;;;;;;;0.55;0.28;;;;;;;19.62;60.25;98503.00;5307537;26;20052;-94
2023/10/31 08:48:05;;;;;;;0.20;0.20;;;;;;;19.72;60.26;98500.41;5307742;26;20092;-94
2023/10/31 08:50:30;;;;;;;0.47;0.47;;;;;;;19.71;60.26;98504.00;5307683;26;20076;-92
2023/10/31 08:52:56;;;;;;;0.05;0.05;;;;;;;19.95;60.27;98500.13;5310236;26;20075;-93
2023/10/31 08:55:21;;;;;;;2.47;0.98;;;;;;;19.85;60.26;98500.13;5311184;26;20076;-94
2023/10/31 08:57:47;;;;;;;0.85;0.85;;;;;;;20.06;60.27;98497.34;5307321;26;24308;-94
2023/10/31 09:00:13;;;;;;;0.47;0.45;;;;;;;20.21;60.28;98499.44;5308676;26;20056;-94
2023/10/31 09:02:38;;;;;;;0.17;0.17;;;;;;;20.38;60.29;98483.84;5308803;26;20075;-93
2023/10/31 09:05:04;;;;;;;0.20;0.15;;;;;;;20.45;60.29;98472.59;5307136;26;20053;-94
2023/10/31 09:07:29;;;;;;;0.00;0.00;;;;;;;20.62;60.30;98464.91;5307509;26;20075;-93
2023/10/31 09:09:55;;;;;;;0.45;0.45;;;;;;;20.64;60.31;98481.44;5307452;26;20080;-94
2023/10/31 09:12:20;;;;;;;0.43;0.40;;;;;;;20.80;60.32;98489.59;5308109;26;29561;-93
2023/10/31 09:14:46;;;;;;;0.10;0.10;;;;;;;20.94;60.33;98485.66;5313143;26;20134;-93
2023/10/31 09:17:12;;;;;;;0.00;0.00;;;;;;;20.95;60.33;98471.47;5313522;26;20412;-93
2023/10/31 09:19:37;;;;;;;0.00;0.00;;;;;;;21.01;60.33;98470.88;5307943;26;20126;-94
2023/10/31 09:22:03;;;;;;;8.52;0.80;;;;;;;21.21;60.33;98469.78;5326066;26;20065;-93
2023/10/31 09:24:29;;;;;;;1.52;1.42;;;;;;;21.27;60.34;98456.00;5307459;26;20414;-94
2023/10/31 09:26:55;;;;;;;1.55;0.55;;;;;;;21.27;60.34;98456.00;5308519;26;20049;-94
2023/10/31 09:29:20;;;;;;;1.10;0.35;;;;;;;21.45;60.34;98445.44;5309825;26;20056;-94
2023/10/31 09:31:47;;;;;;;0.37;0.20;;;;;;;21.48;60.34;98441.66;5309135;26;20535;-94
2023/10/31 09:34:13;;;;;;;1.65;1.27;;;;;;;21.53;60.35;98428.81;5307284;26;20060;-92
2023/10/31 09:36:39;;;;;;;0.57;0.55;;;;;;;21.55;60.35;98426.88;5307396;26;20052;-93
2023/10/31 09:39:05;;;;;;;1.62;0.93;;;;;;;21.56;60.36;98424.06;5289042;26;20436;-94
2023/10/31 09:41:32;;;;;;;1.00;0.95;;;;;;;21.65;60.36;98425.78;5307303;26;20061;-94
2023/10/31 09:43:57;;;;;;;0.10;0.10;;;;;;;21.76;60.36;98425.56;5307506;26;20053;-93
2023/10/31 09:46:23;;;;;;;0.05;0.05;;;;;;;21.81;60.37;98424.28;5306927;26;20048;-93
2023/10/31 09:48:49;;;;;;;3.00;1.23;;;;;;;21.87;60.38;98416.56;5307259;26;20119;-94
2023/10/31 09:51:17;;;;;;;0.00;0.00;;;;;;;21.67;60.36;98413.22;5307392;26;20422;-93
2023/10/31 09:53:44;;;;;;;0.20;0.20;;;;;;;21.73;60.36;98409.97;5307573;26;20052;-93
2023/10/31 09:56:10;;;;;;;0.15;0.10;;;;;;;21.76;60.36;98412.31;5290158;26;20708;-93
2023/10/31 09:58:35;;;;;;;0.25;0.25;;;;;;;21.76;60.36;98406.19;5308053;26;20061;-95
2023/10/31 10:01:01;;;;;;;0.43;0.30;;;;;;;21.76;60.36;98403.53;5308193;26;20111;-93
2023/10/31 10:03:27;;;;;;;0.68;0.68;;;;;;;21.82;60.37;98391.53;5307145;26;32963;-93
2023/10/31 10:05:52;;;;;;;0.25;0.25;;;;;;;21.86;60.38;98377.81;5289972;26;20140;-93
2023/10/31 10:08:17;;;;;;;0.10;0.10;;;;;;;21.76;60.37;98372.56;5308180;26;20068;-93
2023/10/31 10:10:43;;;;;;;0.00;0.00;;;;;;;21.89;60.37;98358.12;5326844;26;20470;-93
2023/10/31 10:13:09;;;;;;;0.05;0.05;;;;;;;21.96;60.38;98351.22;5307614;26;20056;-94
2023/10/31 10:15:52;;;;;;;0.00;0.00;;;;;;;21.95;60.38;98355.69;5308269;26;20056;-93
2023/10/31 10:18:39;;;;;;;0.00;0.00;;;;;;;22.06;60.39;98341.38;5291348;26;20061;-94
2023/10/31 10:21:05;;;;;;;0.10;0.10;;;;;;;22.04;60.39;98324.81;5290586;26;20071;-93
2023/10/31 10:23:31;;;;;;;0.20;0.20;;;;;;;22.10;60.39;98320.72;5307871;26;20053;-93
2023/10/31 10:25:57;;;;;;;0.22;0.22;;;;;;;22.21;60.39;98312.47;5307984;26;20044;-93
2023/10/31 10:28:24;;;;;;;3.80;0.75;;;;;;;22.19;60.39;98311.81;5282215;27;20112;-93
2023/10/31 10:30:50;;;;;;;0.30;0.30;;;;;;;22.49;60.42;98299.88;5300886;27;20065;-93
2023/10/31 10:33:15;;;;;;;0.13;0.13;;;;;;;22.61;60.41;98295.91;5300578;27;20057;-93
2023/10/31 10:35:41;;;;;;;0.00;0.00;;;;;;;22.73;60.42;98284.03;5282255;27;20050;-94
2023/10/31 10:38:15;;;;;;;0.00;0.00;;;;;;;22.72;60.41;98273.59;5300746;27;20402;-93
2023/10/31 10:40:44;;;;;;;0.28;0.28;;;;;;;22.90;60.43;98274.31;5301552;27;20121;-93
2023/10/31 10:43:24;;;;;;;0.00;0.00;;;;;;;22.67;60.42;98279.34;5283021;27;20056;-93
2023/10/31 10:45:57;;;;;;;1.45;0.60;;;;;;;22.84;60.42;98283.75;5302151;27;20061;-93
2023/10/31 10:48:24;;;;;;;0.05;0.05;;;;;;;22.91;60.42;98276.78;5301227;27;20077;-93
2023/10/31 10:51:21;;;;;;;0.30;0.28;;;;;;;22.95;60.42;98272.84;5300774;27;20061;-93
2023/10/31 10:53:59;;;;;;;0.75;0.75;;;;;;;22.95;60.42;98259.59;5295536;27;20028;-93
2023/10/31 10:56:28;;;;;;;0.80;0.20;;;;;;;23.01;60.43;98249.31;5301966;27;20095;-94
2023/10/31 10:59:03;;;;;;;0.70;0.52;;;;;;;22.98;60.44;98252.28;5300910;27;20057;-93
2023/10/31 11:01:31;;;;;;;0.00;0.00;;;;;;;23.07;60.43;98251.28;5300661;27;20072;-93
2023/10/31 11:04:01;;;;;;;0.30;0.30;;;;;;;22.92;60.43;98243.97;5300559;27;20058;-93
2023/10/31 11:06:27;;;;;;;0.62;0.47;;;;;;;23.01;60.43;98234.22;5300953;27;20059;-93
2023/10/31 11:08:52;;;;;;;0.80;0.70;;;;;;;23.11;60.45;98215.47;5300417;27;20065;-93
2023/10/31 11:11:18;;;;;;;0.45;0.20;;;;;;;23.03;60.44;98221.59;5300262;27;20106;-94
2023/10/31 11:13:44;;;;;;;0.77;0.77;;;;;;;22.98;60.44;98234.53;5300479;27;20053;-94
2023/10/31 11:16:15;;;;;;;0.10;0.10;;;;;;;22.88;60.43;98255.06;5300639;27;20390;-93
2023/10/31 11:18:41;;;;;;;0.10;0.10;;;;;;;22.99;60.43;98280.47;5300947;27;20061;-92
2023/10/31 11:21:06;;;;;;;0.00;0.00;;;;;;;22.63;60.41;98280.69;5281945;27;20060;-93
2023/10/31 11:23:32;;;;;;;0.13;0.13;;;;;;;22.35;60.40;98262.34;5300308;27;20077;-93
2023/10/31 11:25:58;;;;;;;0.00;0.00;;;;;;;22.19;60.39;98250.84;5281883;27;20135;-93
2023/10/31 11:28:24;;;;;;;0.20;0.20;;;;;;;22.11;60.39;98245.50;5316343;27;20685;-93